Time;durP1;ratioP1;P1;durP2;ratioP2;P2;SDS_P1;SDS_P2;PMS_P1;PMS_P2;Temp;Humidity;BMP_temperature;BMP_pressure;BME280_temperature;BME280_humidity;BME280_pressure;Samples;Min_cycle;Max_cycle;Signal;HPM_P1;HPM_P2
2023/12/29 00:02:01;;;;;;;28.02;4.88;;;10.60;99.90;;;;;;5062145;28;20052;-62
2023/12/29 00:04:28;;;;;;;28.52;5.43;;;10.60;99.90;;;;;;5036586;28;20579;-63
2023/12/29 00:06:54;;;;;;;23.48;4.82;;;10.70;99.90;;;;;;5050793;28;20063;-63
2023/12/29 00:09:22;;;;;;;29.05;6.93;;;10.70;99.90;;;;;;5044948;28;20388;-62
2023/12/29 00:11:51;;;;;;;31.00;5.22;;;10.70;99.90;;;;;;5048275;28;20131;-62
2023/12/29 00:14:17;;;;;;;26.65;5.97;;;10.70;99.90;;;;;;5035410;28;20174;-62
2023/12/29 00:16:44;;;;;;;23.60;4.13;;;10.70;99.90;;;;;;5050237;28;20131;-62
2023/12/29 00:19:13;;;;;;;21.83;4.68;;;10.70;99.90;;;;;;5035005;28;20076;-62
2023/12/29 00:21:38;;;;;;;23.42;4.70;;;10.70;99.90;;;;;;5039648;28;20494;-63
2023/12/29 00:24:05;;;;;;;21.20;4.22;;;10.70;99.90;;;;;;5031176;28;20051;-63
2023/12/29 00:26:31;;;;;;;22.92;5.75;;;10.70;99.90;;;;;;5046938;28;20108;-63
2023/12/29 00:28:57;;;;;;;23.25;4.05;;;10.70;99.90;;;;;;5045599;28;20127;-63
2023/12/29 00:31:23;;;;;;;24.98;4.75;;;10.70;99.90;;;;;;5051311;28;20053;-63
2023/12/29 00:33:52;;;;;;;24.48;4.07;;;10.70;99.90;;;;;;5048308;28;20402;-62
2023/12/29 00:36:19;;;;;;;24.17;4.50;;;10.70;99.90;;;;;;5034946;28;20044;-63
2023/12/29 00:38:46;;;;;;;19.95;4.07;;;10.70;99.90;;;;;;5047919;28;20036;-62
2023/12/29 00:41:11;;;;;;;23.33;4.90;;;10.70;99.90;;;;;;5027909;28;20244;-62
2023/12/29 00:43:37;;;;;;;28.45;5.53;;;10.70;99.90;;;;;;5045139;28;20037;-63
2023/12/29 00:46:04;;;;;;;23.50;4.68;;;10.70;99.90;;;;;;5048691;28;20555;-63
2023/12/29 00:48:33;;;;;;;31.17;6.55;;;10.70;99.90;;;;;;5031380;28;20182;-63
2023/12/29 00:51:01;;;;;;;25.00;4.55;;;10.70;99.90;;;;;;5048109;28;20240;-63
2023/12/29 00:53:26;;;;;;;25.83;4.38;;;10.70;99.90;;;;;;5050136;28;20501;-63
2023/12/29 00:55:52;;;;;;;27.77;5.25;;;10.70;99.90;;;;;;5044142;28;20086;-62
2023/12/29 00:58:18;;;;;;;26.52;5.88;;;10.70;99.90;;;;;;5032292;28;20041;-63
2023/12/29 01:00:43;;;;;;;24.17;4.30;;;10.70;99.90;;;;;;5030004;28;20101;-63
2023/12/29 01:03:09;;;;;;;22.55;4.75;;;10.70;99.90;;;;;;5049856;28;20047;-63
2023/12/29 01:05:35;;;;;;;25.52;5.05;;;10.70;99.90;;;;;;5060546;28;20450;-62
2023/12/29 01:08:03;;;;;;;34.85;5.85;;;10.70;99.90;;;;;;5052258;28;20080;-63
2023/12/29 01:10:29;;;;;;;28.00;6.03;;;10.70;99.90;;;;;;5040814;28;20124;-63
2023/12/29 01:12:55;;;;;;;24.17;4.68;;;10.70;99.90;;;;;;5043310;28;20836;-62
2023/12/29 01:15:20;;;;;;;32.78;5.90;;;10.70;99.90;;;;;;5045678;28;20447;-63
2023/12/29 01:17:46;;;;;;;26.80;4.35;;;10.70;99.90;;;;;;5063523;28;20036;-62
2023/12/29 01:20:12;;;;;;;36.33;7.78;;;10.70;99.90;;;;;;5031033;28;20083;-62
2023/12/29 01:22:38;;;;;;;31.95;5.40;;;10.70;99.90;;;;;;5059365;28;20076;-62
2023/12/29 01:25:04;;;;;;;23.50;4.80;;;10.70;99.90;;;;;;5064002;28;20123;-62
2023/12/29 01:27:30;;;;;;;22.08;4.57;;;10.70;99.90;;;;;;5050208;28;20071;-63
2023/12/29 01:29:55;;;;;;;23.75;4.20;;;10.60;99.90;;;;;;5017518;28;20032;-62
2023/12/29 01:32:22;;;;;;;15.40;4.10;;;10.60;99.90;;;;;;5048568;28;20056;-63
2023/12/29 01:34:47;;;;;;;29.70;5.22;;;10.50;99.90;;;;;;5042560;28;20033;-63
2023/12/29 01:37:13;;;;;;;22.73;5.30;;;10.50;99.90;;;;;;5063924;28;20047;-63
2023/12/29 01:39:40;;;;;;;27.95;5.63;;;10.50;99.90;;;;;;5061344;28;20135;-63
2023/12/29 01:42:06;;;;;;;25.83;4.93;;;10.50;99.90;;;;;;5030618;28;20474;-63
2023/12/29 01:44:31;;;;;;;20.60;4.05;;;10.50;99.90;;;;;;5060380;28;20071;-63
2023/12/29 01:47:00;;;;;;;23.45;4.40;;;10.40;99.90;;;;;;5049606;28;20165;-62
2023/12/29 01:49:27;;;;;;;20.27;4.00;;;10.40;99.90;;;;;;5044730;28;20049;-63
2023/12/29 01:51:57;;;;;;;23.33;3.95;;;10.40;99.90;;;;;;5048839;28;20041;-63
2023/12/29 01:54:25;;;;;;;17.05;3.25;;;10.40;99.90;;;;;;5043590;28;20060;-62
2023/12/29 01:56:55;;;;;;;16.27;3.50;;;10.40;99.90;;;;;;5053379;28;20119;-63
2023/12/29 01:59:21;;;;;;;19.80;4.55;;;10.50;99.90;;;;;;5029630;28;20455;-62
2023/12/29 02:01:47;;;;;;;17.17;3.42;;;10.50;99.90;;;;;;5033405;28;20041;-63
2023/12/29 02:04:14;;;;;;;19.80;4.13;;;10.50;99.90;;;;;;5044253;28;20051;-62
2023/12/29 02:06:40;;;;;;;15.88;3.88;;;10.60;99.90;;;;;;5047838;28;20560;-62
2023/12/29 02:09:06;;;;;;;19.83;3.28;;;10.60;99.90;;;;;;5046761;28;20633;-62
2023/12/29 02:11:32;;;;;;;17.13;2.83;;;10.50;99.90;;;;;;5046281;28;20093;-62
2023/12/29 02:14:02;;;;;;;23.27;4.25;;;10.50;99.90;;;;;;5039611;28;20036;-63
2023/12/29 02:16:34;;;;;;;15.25;3.15;;;10.50;99.90;;;;;;5046031;28;20393;-62
2023/12/29 02:19:04;;;;;;;16.90;3.23;;;10.50;99.90;;;;;;5024437;28;20036;-62
2023/12/29 02:21:30;;;;;;;16.42;3.25;;;10.50;99.90;;;;;;5061825;28;20152;-62
2023/12/29 02:23:55;;;;;;;23.88;3.72;;;10.50;99.90;;;;;;5016267;28;20537;-62
2023/12/29 02:26:27;;;;;;;16.25;3.47;;;10.40;99.90;;;;;;5029307;28;20098;-62
2023/12/29 02:28:59;;;;;;;15.60;3.20;;;10.40;99.90;;;;;;5045548;28;20052;-62
2023/12/29 02:31:29;;;;;;;21.80;3.55;;;10.40;99.90;;;;;;5041980;28;20055;-63
2023/12/29 02:33:56;;;;;;;21.33;3.50;;;10.30;99.90;;;;;;5042831;28;20562;-63
2023/12/29 02:36:22;;;;;;;19.85;4.18;;;10.40;99.90;;;;;;5046076;28;20033;-63
2023/12/29 02:38:48;;;;;;;19.27;4.45;;;10.40;99.90;;;;;;5051789;28;20245;-63
2023/12/29 02:41:14;;;;;;;28.15;5.28;;;10.40;99.90;;;;;;5047843;28;20044;-63
2023/12/29 02:43:40;;;;;;;25.83;5.15;;;10.40;99.90;;;;;;5057305;28;20489;-63
2023/12/29 02:46:06;;;;;;;25.58;5.53;;;10.50;99.90;;;;;;5049555;28;20285;-63
2023/12/29 02:48:32;;;;;;;26.00;6.15;;;10.50;99.90;;;;;;5064468;28;20553;-63
2023/12/29 02:50:57;;;;;;;24.30;5.18;;;10.50;99.90;;;;;;5051114;28;20448;-63
2023/12/29 02:53:23;;;;;;;36.08;6.40;;;10.50;99.90;;;;;;5049888;28;20045;-63
2023/12/29 02:55:49;;;;;;;33.08;6.00;;;10.50;99.90;;;;;;5049553;28;20040;-62
2023/12/29 02:58:14;;;;;;;31.40;6.65;;;10.50;99.90;;;;;;5054195;28;20044;-62
2023/12/29 03:00:40;;;;;;;35.42;6.47;;;10.50;99.90;;;;;;5049196;28;20045;-62
2023/12/29 03:03:06;;;;;;;28.55;5.82;;;10.50;99.90;;;;;;5053393;28;20040;-62
2023/12/29 03:05:31;;;;;;;33.92;6.75;;;10.50;99.90;;;;;;5049151;28;20044;-62
2023/12/29 03:07:57;;;;;;;36.42;7.75;;;10.50;99.90;;;;;;5049972;28;20494;-62
2023/12/29 03:10:23;;;;;;;40.67;7.18;;;10.50;99.90;;;;;;5050394;28;20131;-62
2023/12/29 03:12:49;;;;;;;33.95;6.35;;;10.50;99.90;;;;;;5036122;28;20239;-63
2023/12/29 03:15:15;;;;;;;37.67;7.35;;;10.60;99.90;;;;;;5049894;28;20137;-63
2023/12/29 03:17:41;;;;;;;37.88;7.40;;;10.60;99.90;;;;;;5032212;28;20094;-62
2023/12/29 03:20:07;;;;;;;40.70;6.57;;;10.60;99.90;;;;;;5043578;28;20127;-63
2023/12/29 03:22:33;;;;;;;30.30;7.00;;;10.60;99.90;;;;;;5047428;28;20478;-63
2023/12/29 03:24:59;;;;;;;43.50;6.60;;;10.60;99.90;;;;;;5047072;28;20105;-63
2023/12/29 03:27:25;;;;;;;38.92;5.78;;;10.50;99.90;;;;;;5036726;28;20127;-62
2023/12/29 03:29:51;;;;;;;28.23;5.78;;;10.50;99.90;;;;;;5048367;28;20140;-62
2023/12/29 03:32:17;;;;;;;32.40;5.75;;;10.50;99.90;;;;;;5049249;28;20040;-62
2023/12/29 03:34:43;;;;;;;30.38;6.30;;;10.40;99.90;;;;;;5048745;28;20041;-62
2023/12/29 03:37:09;;;;;;;29.50;6.03;;;10.40;99.90;;;;;;5048006;28;20036;-63
2023/12/29 03:39:35;;;;;;;33.35;5.70;;;10.40;99.90;;;;;;5048651;28;20098;-63
2023/12/29 03:42:01;;;;;;;26.80;4.85;;;10.40;99.90;;;;;;5067824;28;20048;-63
2023/12/29 03:44:28;;;;;;;32.90;5.53;;;10.40;99.90;;;;;;5052719;28;20139;-63
2023/12/29 03:46:53;;;;;;;25.08;5.38;;;10.30;99.90;;;;;;5035624;28;20406;-63
2023/12/29 03:49:22;;;;;;;27.38;5.25;;;10.30;99.90;;;;;;5049380;28;20482;-62
2023/12/29 03:51:47;;;;;;;32.03;6.38;;;10.30;99.90;;;;;;5048375;28;20033;-62
2023/12/29 03:54:13;;;;;;;24.20;4.78;;;10.20;99.90;;;;;;5032717;28;20037;-62
2023/12/29 03:56:39;;;;;;;26.55;4.82;;;10.30;99.90;;;;;;5030570;28;20033;-62
2023/12/29 03:59:04;;;;;;;22.98;5.05;;;10.20;99.90;;;;;;5043794;28;20051;-63
2023/12/29 04:01:33;;;;;;;23.15;5.07;;;10.20;99.90;;;;;;5034645;28;20460;-63
2023/12/29 04:03:59;;;;;;;21.02;3.95;;;10.20;99.90;;;;;;5048680;28;20045;-63
2023/12/29 04:06:25;;;;;;;21.17;4.15;;;10.20;99.90;;;;;;5048972;28;20059;-63
2023/12/29 04:08:50;;;;;;;23.98;4.75;;;10.20;99.90;;;;;;5014863;28;20041;-63
2023/12/29 04:11:16;;;;;;;26.02;6.13;;;10.20;99.90;;;;;;5048912;28;20053;-63
2023/12/29 04:13:42;;;;;;;31.70;4.75;;;10.20;99.90;;;;;;5064269;28;20123;-63
2023/12/29 04:16:07;;;;;;;26.17;6.15;;;10.20;99.90;;;;;;5046516;28;20502;-63
2023/12/29 04:18:33;;;;;;;22.92;4.20;;;10.20;99.90;;;;;;5050587;28;20044;-63
2023/12/29 04:20:59;;;;;;;25.83;5.20;;;10.20;99.90;;;;;;5048391;28;20036;-63
2023/12/29 04:23:25;;;;;;;25.85;5.03;;;10.20;99.90;;;;;;5036600;28;20118;-63
2023/12/29 04:25:51;;;;;;;30.33;5.35;;;10.20;99.90;;;;;;5047803;28;20040;-62
2023/12/29 04:28:17;;;;;;;25.92;4.78;;;10.20;99.90;;;;;;5032564;28;20101;-63
2023/12/29 04:30:42;;;;;;;33.05;5.70;;;10.20;99.90;;;;;;5048696;28;20071;-63
2023/12/29 04:33:08;;;;;;;21.75;4.45;;;10.20;99.90;;;;;;5029210;28;20123;-63
2023/12/29 04:35:34;;;;;;;22.35;4.88;;;10.20;99.90;;;;;;5048636;28;20357;-63
2023/12/29 04:37:59;;;;;;;31.60;5.63;;;10.20;99.90;;;;;;5051495;28;20036;-63
2023/12/29 04:40:25;;;;;;;29.60;5.75;;;10.20;99.90;;;;;;5045731;28;20106;-62
2023/12/29 04:42:51;;;;;;;33.97;5.45;;;10.20;99.90;;;;;;5044772;28;20784;-63
2023/12/29 04:45:17;;;;;;;23.70;4.45;;;10.20;99.90;;;;;;5046492;28;20592;-63
2023/12/29 04:47:42;;;;;;;22.33;5.00;;;10.10;99.90;;;;;;5026642;28;20356;-63
2023/12/29 04:50:08;;;;;;;22.20;5.32;;;10.20;99.90;;;;;;5044928;28;20317;-63
2023/12/29 04:52:34;;;;;;;24.02;5.40;;;10.20;99.90;;;;;;5020035;28;20044;-62
2023/12/29 04:55:00;;;;;;;26.67;4.68;;;10.20;99.90;;;;;;5044183;28;20440;-62
2023/12/29 04:57:25;;;;;;;23.88;5.05;;;10.20;99.90;;;;;;5058520;28;20492;-62
2023/12/29 04:59:51;;;;;;;23.95;5.45;;;10.20;99.90;;;;;;5065853;28;20037;-63
2023/12/29 05:02:17;;;;;;;27.80;5.38;;;10.20;99.90;;;;;;5048686;28;20267;-62
2023/12/29 05:04:43;;;;;;;29.27;5.35;;;10.20;99.90;;;;;;5028251;28;20078;-63
2023/12/29 05:07:09;;;;;;;27.75;4.60;;;10.30;99.90;;;;;;5049453;28;20068;-63
2023/12/29 05:09:35;;;;;;;21.58;6.70;;;10.30;99.90;;;;;;5045923;28;20564;-63
2023/12/29 05:12:01;;;;;;;23.52;4.05;;;10.30;99.90;;;;;;5044257;28;20079;-63
2023/12/29 05:14:27;;;;;;;27.55;5.07;;;10.30;99.90;;;;;;5044761;28;20040;-63
2023/12/29 05:16:53;;;;;;;35.00;6.32;;;10.30;99.90;;;;;;5026654;28;20171;-63
2023/12/29 05:19:19;;;;;;;29.98;5.63;;;10.30;99.90;;;;;;5045074;28;20040;-62
2023/12/29 05:21:45;;;;;;;23.92;5.03;;;10.30;99.90;;;;;;5062539;28;20394;-63
2023/12/29 05:24:12;;;;;;;24.00;5.95;;;10.30;99.90;;;;;;5048002;28;20068;-63
2023/12/29 05:26:38;;;;;;;24.23;5.40;;;10.30;99.90;;;;;;5046525;28;20048;-61
2023/12/29 05:29:03;;;;;;;25.77;5.53;;;10.20;99.90;;;;;;5015996;28;20048;-61
2023/12/29 05:31:29;;;;;;;31.70;5.38;;;10.20;99.90;;;;;;5041670;28;20583;-62
2023/12/29 05:33:56;;;;;;;23.27;4.72;;;10.20;99.90;;;;;;5046989;28;20113;-61
2023/12/29 05:36:21;;;;;;;26.00;5.28;;;10.20;99.90;;;;;;5047255;28;20043;-62
2023/12/29 05:38:47;;;;;;;27.35;5.63;;;10.30;99.90;;;;;;5048102;28;20033;-61
2023/12/29 05:41:13;;;;;;;25.30;5.30;;;10.30;99.90;;;;;;5050032;28;20138;-61
2023/12/29 05:43:39;;;;;;;31.08;5.93;;;10.30;99.90;;;;;;5045094;28;20134;-61
2023/12/29 05:46:11;;;;;;;21.42;4.93;;;10.20;99.90;;;;;;5047271;28;20123;-61
2023/12/29 05:48:38;;;;;;;22.98;5.20;;;10.30;99.90;;;;;;5043243;28;20044;-61
2023/12/29 05:51:12;;;;;;;28.20;5.53;;;10.30;99.90;;;;;;5028183;28;20135;-61
2023/12/29 05:53:39;;;;;;;29.88;6.13;;;10.30;99.90;;;;;;5027249;28;20043;-61
2023/12/29 05:56:05;;;;;;;27.83;6.63;;;10.30;99.90;;;;;;5044539;28;20051;-61
2023/12/29 05:58:31;;;;;;;28.80;5.07;;;10.30;99.90;;;;;;5044806;28;20119;-61
2023/12/29 06:00:58;;;;;;;26.88;4.68;;;10.30;99.90;;;;;;5049156;28;20159;-61
2023/12/29 06:03:24;;;;;;;28.88;5.32;;;10.30;99.90;;;;;;5033698;28;20574;-61
2023/12/29 06:05:50;;;;;;;29.67;6.88;;;10.40;99.90;;;;;;5010601;28;20131;-62
2023/12/29 06:08:16;;;;;;;24.63;5.15;;;10.30;99.90;;;;;;5022319;28;20037;-61
2023/12/29 06:10:42;;;;;;;33.40;6.13;;;10.30;99.90;;;;;;5048545;28;20493;-61
2023/12/29 06:13:07;;;;;;;23.48;5.07;;;10.30;99.90;;;;;;5060754;28;20058;-61
2023/12/29 06:15:33;;;;;;;21.05;4.45;;;10.30;99.90;;;;;;5058070;28;20040;-62
2023/12/29 06:17:59;;;;;;;24.00;4.55;;;10.30;99.90;;;;;;5046113;28;20071;-60
2023/12/29 06:20:25;;;;;;;27.33;5.60;;;10.30;99.90;;;;;;5063133;28;20506;-61
2023/12/29 06:22:51;;;;;;;22.58;4.80;;;10.30;99.90;;;;;;5049018;28;20405;-62
2023/12/29 06:25:17;;;;;;;21.90;4.93;;;10.20;99.90;;;;;;5042747;28;20040;-61
2023/12/29 06:27:43;;;;;;;22.45;4.97;;;10.30;99.90;;;;;;5044303;28;20044;-61
2023/12/29 06:30:10;;;;;;;28.00;4.95;;;10.30;99.90;;;;;;5042522;28;20043;-61
2023/12/29 06:32:37;;;;;;;24.67;5.18;;;10.30;99.90;;;;;;5059883;28;20535;-61
2023/12/29 06:35:03;;;;;;;25.05;5.78;;;10.30;99.90;;;;;;5046255;28;20044;-61
2023/12/29 06:37:29;;;;;;;24.45;5.35;;;10.30;99.90;;;;;;5047694;28;20067;-61
2023/12/29 06:39:55;;;;;;;28.42;5.35;;;10.30;99.90;;;;;;5043504;28;20365;-62
2023/12/29 06:42:21;;;;;;;32.08;5.57;;;10.30;99.90;;;;;;5039727;28;20059;-62
2023/12/29 06:44:46;;;;;;;27.48;4.60;;;10.40;99.90;;;;;;5039766;28;20041;-61
2023/12/29 06:47:12;;;;;;;26.27;4.88;;;10.40;99.90;;;;;;5049761;28;20045;-62
2023/12/29 06:49:39;;;;;;;27.52;5.50;;;10.40;99.90;;;;;;5042752;28;20053;-62
2023/12/29 06:52:05;;;;;;;33.40;5.90;;;10.30;99.90;;;;;;5041536;28;20047;-62
2023/12/29 06:54:31;;;;;;;34.53;5.82;;;10.40;99.90;;;;;;5026702;28;20418;-61
2023/12/29 06:56:57;;;;;;;31.35;6.03;;;10.40;99.90;;;;;;5045904;28;20079;-61
2023/12/29 06:59:23;;;;;;;28.08;6.18;;;10.30;99.90;;;;;;5029462;28;20557;-61
2023/12/29 07:01:49;;;;;;;25.73;5.15;;;10.30;99.90;;;;;;5040667;28;20417;-62
2023/12/29 07:04:15;;;;;;;26.88;5.95;;;10.30;99.90;;;;;;5044764;28;20055;-61
2023/12/29 07:06:41;;;;;;;37.00;5.90;;;10.30;99.90;;;;;;5032484;28;20124;-62
2023/12/29 07:09:08;;;;;;;29.90;6.45;;;10.30;99.90;;;;;;5046239;28;20072;-61
2023/12/29 07:11:34;;;;;;;33.88;5.43;;;10.30;99.90;;;;;;5045707;28;20036;-62
2023/12/29 07:14:00;;;;;;;27.38;6.07;;;10.30;99.90;;;;;;5031156;28;20033;-61
2023/12/29 07:16:26;;;;;;;35.13;6.82;;;10.30;99.90;;;;;;5043261;28;20040;-61
2023/12/29 07:18:52;;;;;;;37.33;6.03;;;10.30;99.90;;;;;;5041771;28;20033;-61
2023/12/29 07:21:18;;;;;;;24.77;4.80;;;10.30;99.90;;;;;;5026767;28;20045;-62
2023/12/29 07:23:44;;;;;;;31.17;6.13;;;10.30;99.90;;;;;;5049073;28;20525;-62
2023/12/29 07:26:10;;;;;;;29.98;5.10;;;10.30;99.90;;;;;;5030242;28;20479;-62
2023/12/29 07:28:35;;;;;;;26.25;4.88;;;10.40;99.90;;;;;;5046675;28;20043;-62
2023/12/29 07:31:02;;;;;;;36.60;5.97;;;10.40;99.90;;;;;;5016669;28;20438;-62
2023/12/29 07:33:28;;;;;;;31.63;5.95;;;10.30;99.90;;;;;;5033755;28;20125;-62
2023/12/29 07:35:54;;;;;;;28.15;5.68;;;10.40;99.90;;;;;;5033061;28;20043;-62
2023/12/29 07:38:20;;;;;;;26.17;4.93;;;10.40;99.90;;;;;;5049024;28;20036;-62
2023/12/29 07:40:47;;;;;;;33.53;5.57;;;10.30;99.90;;;;;;5045526;28;20055;-61
2023/12/29 07:43:13;;;;;;;29.73;5.82;;;10.30;99.90;;;;;;5032479;28;20048;-62
2023/12/29 07:45:39;;;;;;;31.05;4.93;;;10.30;99.90;;;;;;5046215;28;20045;-62
2023/12/29 07:48:05;;;;;;;33.67;6.65;;;10.30;99.90;;;;;;5052121;28;20049;-62
2023/12/29 07:50:31;;;;;;;28.13;5.55;;;10.30;99.90;;;;;;5050702;28;20049;-62
2023/12/29 07:52:57;;;;;;;34.33;6.53;;;10.30;99.90;;;;;;5033539;28;20089;-62
2023/12/29 07:55:23;;;;;;;36.75;5.18;;;10.30;99.90;;;;;;5032131;28;20040;-62
2023/12/29 07:57:48;;;;;;;30.27;5.55;;;10.30;99.90;;;;;;5043555;28;20037;-61
2023/12/29 08:00:15;;;;;;;31.50;5.13;;;10.20;99.90;;;;;;5041180;28;20245;-62
2023/12/29 08:02:41;;;;;;;26.33;4.70;;;10.20;99.90;;;;;;5050276;28;20524;-62
2023/12/29 08:05:09;;;;;;;20.05;4.30;;;10.20;99.90;;;;;;5030400;28;20041;-62
2023/12/29 08:07:37;;;;;;;23.30;4.50;;;10.20;99.90;;;;;;5049379;28;20128;-62
2023/12/29 08:10:04;;;;;;;23.98;4.13;;;10.20;99.90;;;;;;5040306;28;20477;-61
2023/12/29 08:12:30;;;;;;;26.60;5.30;;;10.20;99.90;;;;;;5050138;28;20064;-62
2023/12/29 08:14:56;;;;;;;27.15;5.13;;;10.20;99.90;;;;;;5047396;28;20068;-61
2023/12/29 08:17:22;;;;;;;25.98;4.65;;;10.20;99.90;;;;;;5053616;28;20063;-61
2023/12/29 08:19:48;;;;;;;22.27;4.78;;;10.10;99.90;;;;;;5030713;28;20033;-62
2023/12/29 08:22:13;;;;;;;23.20;4.10;;;10.20;99.90;;;;;;5053965;28;20083;-61
2023/12/29 08:24:45;;;;;;;25.77;5.35;;;10.20;99.90;;;;;;5068799;28;20421;-61
2023/12/29 08:27:13;;;;;;;25.60;5.20;;;10.20;99.90;;;;;;5050456;28;20072;-62
2023/12/29 08:29:38;;;;;;;25.02;5.28;;;10.20;99.90;;;;;;5047478;28;20501;-62
2023/12/29 08:32:05;;;;;;;25.35;4.20;;;10.20;99.90;;;;;;5047949;28;20029;-62
2023/12/29 08:34:30;;;;;;;29.23;4.97;;;10.20;99.90;;;;;;5012160;28;20106;-61
2023/12/29 08:36:56;;;;;;;19.63;4.53;;;10.20;99.90;;;;;;5033745;28;20049;-62
2023/12/29 08:39:22;;;;;;;28.83;5.53;;;10.20;99.90;;;;;;5029000;28;20044;-61
2023/12/29 08:41:49;;;;;;;22.15;5.28;;;10.10;99.90;;;;;;5037474;28;20055;-62
2023/12/29 08:44:15;;;;;;;32.50;5.88;;;10.10;99.90;;;;;;5040635;28;20120;-61
2023/12/29 08:46:41;;;;;;;23.55;3.92;;;10.10;99.90;;;;;;5048588;28;20464;-61
2023/12/29 08:49:07;;;;;;;18.50;4.38;;;10.10;99.90;;;;;;5042653;28;20165;-61
2023/12/29 08:51:33;;;;;;;21.20;4.32;;;10.10;99.90;;;;;;5043460;28;20041;-61
2023/12/29 08:53:59;;;;;;;20.42;3.47;;;10.10;99.90;;;;;;5052426;28;20304;-61
2023/12/29 08:56:25;;;;;;;23.48;4.63;;;10.00;99.90;;;;;;5050499;28;20098;-61
2023/12/29 08:58:50;;;;;;;23.95;4.65;;;10.10;99.90;;;;;;5039803;28;20105;-61
2023/12/29 09:01:16;;;;;;;20.45;4.20;;;10.00;99.90;;;;;;5035441;28;20045;-60
2023/12/29 09:03:42;;;;;;;25.20;6.22;;;10.00;99.90;;;;;;5047210;28;20040;-61
2023/12/29 09:06:08;;;;;;;22.23;4.30;;;10.00;99.90;;;;;;5049958;28;20044;-60
2023/12/29 09:08:35;;;;;;;23.08;5.30;;;10.00;99.90;;;;;;5048687;28;20059;-61
2023/12/29 09:11:01;;;;;;;21.08;5.28;;;10.00;99.90;;;;;;5049105;28;20462;-62
2023/12/29 09:13:27;;;;;;;31.60;5.43;;;10.00;99.90;;;;;;5056312;28;20040;-61
2023/12/29 09:15:56;;;;;;;27.73;5.35;;;10.00;99.90;;;;;;5046011;28;20044;-61
2023/12/29 09:18:22;;;;;;;27.15;5.47;;;10.10;99.90;;;;;;5047112;28;20028;-60
2023/12/29 09:20:47;;;;;;;36.15;5.65;;;10.10;99.90;;;;;;5033782;28;20076;-60
2023/12/29 09:23:13;;;;;;;26.52;4.50;;;10.10;99.90;;;;;;5052094;28;20127;-61
2023/12/29 09:25:41;;;;;;;28.17;5.68;;;10.20;99.90;;;;;;5042846;28;20498;-61
2023/12/29 09:28:07;;;;;;;31.60;6.30;;;10.20;99.90;;;;;;5048637;28;20200;-61
2023/12/29 09:30:33;;;;;;;18.98;4.38;;;10.30;99.90;;;;;;5033813;28;20043;-61
2023/12/29 09:32:58;;;;;;;31.60;5.40;;;10.30;99.90;;;;;;5067870;28;20041;-61
2023/12/29 09:35:24;;;;;;;33.05;5.47;;;10.30;99.90;;;;;;5049848;28;20036;-61
2023/12/29 09:37:50;;;;;;;24.08;4.85;;;10.30;99.90;;;;;;5031490;28;20043;-60
2023/12/29 09:40:16;;;;;;;24.02;5.45;;;10.30;99.90;;;;;;5034723;28;20041;-62
2023/12/29 09:42:46;;;;;;;25.83;4.65;;;10.40;99.90;;;;;;5024849;28;20154;-61
2023/12/29 09:45:13;;;;;;;23.73;4.53;;;10.40;99.90;;;;;;5039871;28;20068;-61
2023/12/29 09:47:41;;;;;;;34.30;4.95;;;10.40;99.90;;;;;;5044516;28;20051;-60
2023/12/29 09:50:16;;;;;;;26.90;4.60;;;10.40;99.90;;;;;;5022757;28;20044;-61
2023/12/29 09:52:43;;;;;;;22.83;4.05;;;10.40;99.90;;;;;;5042961;28;20048;-61
2023/12/29 09:55:10;;;;;;;28.35;5.50;;;10.40;99.90;;;;;;5058607;28;20032;-61
2023/12/29 09:57:40;;;;;;;21.92;4.30;;;10.40;99.90;;;;;;5059250;28;20486;-61
2023/12/29 10:00:10;;;;;;;27.00;5.03;;;10.40;99.90;;;;;;5046177;28;20046;-61
2023/12/29 10:02:36;;;;;;;29.08;6.32;;;10.40;99.90;;;;;;5062484;28;20037;-63
2023/12/29 10:05:04;;;;;;;19.35;4.78;;;10.40;99.90;;;;;;5042630;28;20123;-61
2023/12/29 10:07:35;;;;;;;23.17;4.40;;;10.40;99.90;;;;;;5041699;28;20068;-61
2023/12/29 10:10:02;;;;;;;33.42;5.35;;;10.40;99.90;;;;;;5043370;28;20429;-62
2023/12/29 10:12:32;;;;;;;20.50;5.00;;;10.40;99.90;;;;;;5025271;28;20052;-61
2023/12/29 10:15:09;;;;;;;24.00;4.93;;;10.40;99.90;;;;;;5040046;28;20072;-60
2023/12/29 10:17:50;;;;;;;24.02;4.18;;;10.40;99.90;;;;;;5058628;28;20045;-60
2023/12/29 10:20:28;;;;;;;24.13;3.78;;;10.40;99.90;;;;;;5046168;28;20044;-61
2023/12/29 10:23:16;;;;;;;21.33;4.38;;;10.30;99.90;;;;;;5046515;28;20103;-61
2023/12/29 10:25:42;;;;;;;25.73;4.10;;;10.30;99.90;;;;;;5044364;28;20448;-62
2023/12/29 10:28:09;;;;;;;20.98;4.20;;;10.30;99.90;;;;;;5047784;28;20036;-62
2023/12/29 10:30:36;;;;;;;18.55;3.65;;;10.20;99.90;;;;;;5031202;28;20036;-62
2023/12/29 10:33:03;;;;;;;18.65;4.15;;;10.20;99.90;;;;;;5041939;28;20045;-61
2023/12/29 10:35:30;;;;;;;18.85;4.10;;;10.20;99.90;;;;;;5043955;28;20037;-61
2023/12/29 10:38:17;;;;;;;19.42;4.20;;;10.20;99.90;;;;;;5042103;28;20071;-61
2023/12/29 10:40:43;;;;;;;19.38;3.92;;;10.20;99.90;;;;;;5041440;28;20095;-61
2023/12/29 10:43:09;;;;;;;17.88;3.67;;;10.10;99.90;;;;;;5026668;28;20083;-61
2023/12/29 10:45:38;;;;;;;18.92;2.53;;;10.10;99.90;;;;;;5043867;28;20104;-61
2023/12/29 10:48:05;;;;;;;18.67;3.33;;;10.10;99.90;;;;;;5046439;28;20085;-61
2023/12/29 10:50:42;;;;;;;13.82;3.70;;;10.00;99.90;;;;;;5041984;28;20109;-60
2023/12/29 10:53:18;;;;;;;21.67;3.80;;;9.90;99.90;;;;;;5002687;28;20075;-61
2023/12/29 10:55:44;;;;;;;17.92;3.05;;;9.90;99.90;;;;;;5061766;28;20037;-60
2023/12/29 10:58:10;;;;;;;22.98;3.67;;;9.80;99.90;;;;;;5032249;28;20446;-60
2023/12/29 11:00:36;;;;;;;16.73;3.75;;;9.90;99.90;;;;;;5022522;28;20168;-61
2023/12/29 11:03:02;;;;;;;15.93;2.92;;;9.90;99.90;;;;;;5038686;28;20040;-63
2023/12/29 11:05:30;;;;;;;12.68;2.70;;;10.00;99.90;;;;;;5046466;28;20048;-63
2023/12/29 11:07:58;;;;;;;18.02;3.70;;;10.00;99.90;;;;;;5017408;28;20045;-62
2023/12/29 11:10:25;;;;;;;20.30;3.72;;;10.10;99.90;;;;;;5057512;28;20037;-60
2023/12/29 11:12:52;;;;;;;18.17;3.40;;;10.10;99.90;;;;;;5048585;28;20264;-60
2023/12/29 11:15:17;;;;;;;17.60;3.92;;;10.10;99.90;;;;;;5049692;28;20035;-62
2023/12/29 11:17:49;;;;;;;18.77;3.22;;;10.20;99.90;;;;;;5051180;28;20032;-62
2023/12/29 11:20:22;;;;;;;17.33;3.65;;;10.20;99.90;;;;;;5048227;28;20599;-62
2023/12/29 11:22:47;;;;;;;17.38;3.58;;;10.20;99.90;;;;;;5052974;28;20037;-61
2023/12/29 11:25:15;;;;;;;30.55;5.05;;;10.30;99.90;;;;;;5052476;28;20040;-62
2023/12/29 11:27:41;;;;;;;20.15;3.38;;;10.30;99.90;;;;;;5035637;28;20036;-62
2023/12/29 11:30:08;;;;;;;17.08;3.13;;;10.40;99.90;;;;;;5045279;28;20040;-62
2023/12/29 11:32:52;;;;;;;20.52;3.83;;;10.40;99.90;;;;;;5049991;28;20119;-62
2023/12/29 11:35:35;;;;;;;14.25;2.67;;;10.40;99.90;;;;;;5035213;28;20501;-62
2023/12/29 11:38:11;;;;;;;15.68;3.53;;;10.40;99.90;;;;;;5064537;28;20526;-63
2023/12/29 11:40:46;;;;;;;23.95;3.95;;;10.50;99.90;;;;;;5043536;28;20109;-61
2023/12/29 11:43:16;;;;;;;18.45;3.25;;;10.50;99.90;;;;;;5046581;28;20553;-62
2023/12/29 11:45:42;;;;;;;17.75;3.83;;;10.60;99.90;;;;;;5052286;28;20051;-63
2023/12/29 11:48:08;;;;;;;17.42;3.33;;;10.70;99.90;;;;;;5054276;28;20537;-62
2023/12/29 11:50:40;;;;;;;15.40;2.55;;;10.70;99.90;;;;;;5034050;28;20051;-61
2023/12/29 11:53:08;;;;;;;13.23;3.20;;;10.80;99.90;;;;;;5058240;28;20049;-63
2023/12/29 11:55:38;;;;;;;15.88;3.17;;;10.80;99.90;;;;;;5047729;28;20040;-62
2023/12/29 11:58:28;;;;;;;16.75;3.95;;;10.90;99.90;;;;;;5055129;28;20055;-62
2023/12/29 12:00:54;;;;;;;19.08;4.70;;;10.90;99.90;;;;;;5051931;28;20044;-62
2023/12/29 12:03:28;;;;;;;17.65;3.30;;;10.80;99.90;;;;;;5049076;28;20055;-61
2023/12/29 12:05:57;;;;;;;15.45;3.30;;;10.70;99.90;;;;;;5068671;28;20514;-62
2023/12/29 12:08:28;;;;;;;13.23;2.80;;;10.60;99.90;;;;;;5051412;28;20700;-62
2023/12/29 12:10:55;;;;;;;14.07;3.60;;;10.50;99.90;;;;;;5047923;28;20506;-62
2023/12/29 12:13:53;;;;;;;15.20;3.67;;;10.30;99.90;;;;;;5049646;28;20033;-62
2023/12/29 12:16:51;;;;;;;16.48;4.10;;;10.20;99.90;;;;;;5021424;28;20045;-62
2023/12/29 12:19:18;;;;;;;15.10;3.15;;;10.10;99.90;;;;;;5045016;28;20033;-62
2023/12/29 12:21:50;;;;;;;20.50;3.40;;;10.00;99.90;;;;;;5044980;28;20533;-62
2023/12/29 12:24:19;;;;;;;14.98;2.97;;;10.10;99.90;;;;;;5046838;28;20032;-62
2023/12/29 12:26:45;;;;;;;18.67;2.85;;;10.10;99.90;;;;;;5052575;28;20115;-62
2023/12/29 12:29:13;;;;;;;16.75;3.60;;;10.10;99.90;;;;;;5032892;28;20037;-61
2023/12/29 12:31:55;;;;;;;17.73;2.78;;;10.00;99.90;;;;;;5051051;28;20397;-60
2023/12/29 12:34:21;;;;;;;15.13;2.97;;;9.90;99.90;;;;;;5060468;28;20032;-62
2023/12/29 12:36:51;;;;;;;18.65;4.30;;;9.80;99.90;;;;;;5032952;28;20037;-62
2023/12/29 12:39:17;;;;;;;18.00;3.30;;;9.80;99.90;;;;;;5050906;28;20040;-62